Time;durP1;ratioP1;P1;durP2;ratioP2;P2;SDS_P1;SDS_P2;PMS_P1;PMS_P2;Temp;Humidity;BMP_temperature;BMP_pressure;BME280_temperature;BME280_humidity;BME280_pressure;Samples;Min_cycle;Max_cycle;Signal;HPM_P1;HPM_P2
2022/03/26 00:01:06;;;;;;;16.37;12.43;;;11.40;98.20;;;;;;5030405;28;20204;-81
2022/03/26 00:03:35;;;;;;;20.57;13.20;;;11.30;97.90;;;;;;5030666;28;20220;-82
2022/03/26 00:06:04;;;;;;;16.57;12.30;;;11.20;97.80;;;;;;5030358;28;20263;-81
2022/03/26 00:08:30;;;;;;;19.23;13.87;;;11.10;97.80;;;;;;5030410;28;20275;-81
2022/03/26 00:10:57;;;;;;;19.90;13.60;;;11.10;97.60;;;;;;5030339;28;20287;-81
2022/03/26 00:13:25;;;;;;;21.43;14.40;;;11.00;97.70;;;;;;5029966;28;20730;-81
2022/03/26 00:15:51;;;;;;;20.83;13.20;;;11.00;97.90;;;;;;5030114;28;20263;-81
2022/03/26 00:18:18;;;;;;;23.57;14.23;;;11.00;97.90;;;;;;5029815;28;20785;-81
2022/03/26 00:20:45;;;;;;;19.73;12.80;;;11.00;97.90;;;;;;5030180;28;20204;-81
2022/03/26 00:23:12;;;;;;;16.63;12.90;;;10.90;97.80;;;;;;5030500;28;20203;-82
2022/03/26 00:25:39;;;;;;;20.03;13.23;;;10.90;97.70;;;;;;5030079;28;20561;-82
2022/03/26 00:28:06;;;;;;;19.67;12.80;;;10.90;97.50;;;;;;5030106;28;20209;-81
2022/03/26 00:30:34;;;;;;;16.37;12.40;;;10.90;97.40;;;;;;5029428;28;20422;-82
2022/03/26 00:33:00;;;;;;;23.67;14.50;;;10.90;97.50;;;;;;5029871;28;20260;-81
2022/03/26 00:35:27;;;;;;;19.83;13.50;;;10.90;98.00;;;;;;5029553;28;20208;-81
2022/03/26 00:37:54;;;;;;;19.47;13.67;;;10.90;98.50;;;;;;5029791;28;20681;-81
2022/03/26 00:40:20;;;;;;;19.47;13.33;;;10.90;98.30;;;;;;5029537;28;20694;-81
2022/03/26 00:42:47;;;;;;;20.63;13.50;;;10.80;98.40;;;;;;5028892;28;20251;-81
2022/03/26 00:45:14;;;;;;;19.63;14.17;;;10.70;98.50;;;;;;5029196;28;20262;-81
2022/03/26 00:47:42;;;;;;;20.23;13.63;;;10.80;99.00;;;;;;5011876;28;20275;-81
2022/03/26 00:50:10;;;;;;;21.40;13.90;;;10.80;98.70;;;;;;5009208;28;20680;-82
2022/03/26 00:52:37;;;;;;;21.00;13.97;;;10.70;98.70;;;;;;5013908;28;20319;-81
2022/03/26 00:55:05;;;;;;;22.93;13.77;;;10.70;98.90;;;;;;5029427;28;20212;-81
2022/03/26 00:57:31;;;;;;;19.73;14.23;;;10.60;99.10;;;;;;5029144;28;20205;-83
2022/03/26 00:59:59;;;;;;;19.63;14.10;;;10.60;99.40;;;;;;5029236;28;20213;-81
2022/03/26 01:02:25;;;;;;;23.83;14.30;;;10.40;99.80;;;;;;5028805;28;20213;-81
2022/03/26 01:04:53;;;;;;;21.70;14.40;;;10.50;99.90;;;;;;5029202;28;20211;-81
2022/03/26 01:07:20;;;;;;;19.23;13.23;;;10.50;99.60;;;;;;5029080;28;20211;-81
2022/03/26 01:09:47;;;;;;;18.40;13.37;;;10.50;99.70;;;;;;5029050;28;20228;-81
2022/03/26 01:12:14;;;;;;;20.73;13.53;;;10.50;99.50;;;;;;5029107;28;20267;-81
2022/03/26 01:14:40;;;;;;;21.43;15.00;;;10.50;99.30;;;;;;5029116;28;20215;-81
2022/03/26 01:17:07;;;;;;;20.70;13.60;;;10.50;99.00;;;;;;5029089;28;20205;-81
2022/03/26 01:19:34;;;;;;;23.03;14.13;;;10.40;98.70;;;;;;5028688;28;20241;-81
2022/03/26 01:22:02;;;;;;;19.77;13.50;;;10.50;98.70;;;;;;5029252;28;20287;-81
2022/03/26 01:24:29;;;;;;;20.83;14.00;;;10.50;98.70;;;;;;5008879;28;20205;-81
2022/03/26 01:26:55;;;;;;;18.43;12.87;;;10.50;98.80;;;;;;5025310;28;20263;-82
2022/03/26 01:29:22;;;;;;;19.20;13.17;;;10.50;99.00;;;;;;5028513;28;20659;-82
2022/03/26 01:31:49;;;;;;;15.83;13.03;;;10.60;99.20;;;;;;5028763;28;20201;-82
2022/03/26 01:34:16;;;;;;;18.93;13.33;;;10.40;99.40;;;;;;5028602;28;20232;-81
2022/03/26 01:36:42;;;;;;;18.77;13.57;;;10.50;99.30;;;;;;5028347;28;20684;-82
2022/03/26 01:39:11;;;;;;;21.20;13.60;;;10.40;99.20;;;;;;5012483;28;20279;-81
2022/03/26 01:41:38;;;;;;;18.93;13.40;;;10.40;99.20;;;;;;5016111;28;20213;-81
2022/03/26 01:44:05;;;;;;;16.60;13.20;;;10.30;99.30;;;;;;5028300;28;20223;-81
2022/03/26 01:46:45;;;;;;;18.90;13.27;;;10.40;99.10;;;;;;5028473;28;20205;-81
2022/03/26 01:49:12;;;;;;;19.30;13.83;;;10.40;99.00;;;;;;5028250;28;20258;-81
2022/03/26 01:51:39;;;;;;;23.93;13.43;;;10.30;98.80;;;;;;5028370;28;20235;-81
2022/03/26 01:54:05;;;;;;;20.67;13.33;;;10.10;98.90;;;;;;5027201;28;20272;-81
2022/03/26 01:56:34;;;;;;;17.87;13.37;;;10.10;99.00;;;;;;5028064;28;20208;-81
2022/03/26 01:59:01;;;;;;;18.83;13.20;;;10.20;99.00;;;;;;5046645;28;20270;-81
2022/03/26 02:01:27;;;;;;;16.73;13.23;;;10.20;99.00;;;;;;5048078;28;20204;-81
2022/03/26 02:03:54;;;;;;;20.83;14.53;;;10.30;99.00;;;;;;5043564;28;20255;-81
2022/03/26 02:06:22;;;;;;;18.97;13.90;;;10.20;99.00;;;;;;5028068;28;20247;-81
2022/03/26 02:08:49;;;;;;;21.13;14.20;;;10.10;99.30;;;;;;5028108;28;20209;-82
2022/03/26 02:11:16;;;;;;;17.97;13.80;;;10.10;99.70;;;;;;5028104;28;20233;-81
2022/03/26 02:13:52;;;;;;;20.87;14.10;;;10.10;99.80;;;;;;5025776;28;20237;-82
2022/03/26 02:16:20;;;;;;;21.37;14.30;;;10.00;99.90;;;;;;5008169;28;20656;-82
2022/03/26 02:18:47;;;;;;;20.53;14.20;;;10.00;99.90;;;;;;5008328;28;20244;-81
2022/03/26 02:21:15;;;;;;;22.83;14.50;;;10.00;99.90;;;;;;5008741;28;20206;-82
2022/03/26 02:23:42;;;;;;;19.27;13.60;;;10.10;99.90;;;;;;5028359;28;20235;-82
2022/03/26 02:26:09;;;;;;;19.80;13.57;;;10.10;99.90;;;;;;5028145;28;20208;-81
2022/03/26 02:28:36;;;;;;;19.87;13.47;;;10.00;99.90;;;;;;5028106;28;20208;-81
2022/03/26 02:31:06;;;;;;;19.73;13.33;;;10.00;99.90;;;;;;5027927;28;20208;-81
2022/03/26 02:33:32;;;;;;;17.97;13.40;;;10.00;99.90;;;;;;5027796;28;20240;-82
2022/03/26 02:35:59;;;;;;;19.80;13.47;;;10.00;99.90;;;;;;5028364;28;20593;-81
2022/03/26 02:38:27;;;;;;;18.97;14.17;;;10.00;99.90;;;;;;5028035;28;20262;-81
2022/03/26 02:40:54;;;;;;;19.00;13.03;;;10.00;99.90;;;;;;5027916;28;20205;-81
2022/03/26 02:43:20;;;;;;;19.90;13.43;;;10.00;99.90;;;;;;5027985;28;20208;-81
2022/03/26 02:45:47;;;;;;;19.73;12.30;;;9.90;99.80;;;;;;5011611;28;20209;-82
2022/03/26 02:48:14;;;;;;;19.67;13.37;;;9.90;99.70;;;;;;5008137;28;20571;-82
2022/03/26 02:50:41;;;;;;;20.90;13.80;;;9.80;99.70;;;;;;5008115;28;20736;-81
2022/03/26 02:53:08;;;;;;;21.67;14.27;;;9.80;99.90;;;;;;5017863;28;20715;-81
2022/03/26 02:55:37;;;;;;;21.43;14.93;;;9.70;99.90;;;;;;5047936;28;20212;-81
2022/03/26 02:58:06;;;;;;;22.60;14.70;;;9.70;99.90;;;;;;5047848;28;20632;-81
2022/03/26 03:00:32;;;;;;;19.90;13.87;;;9.60;99.90;;;;;;5039525;28;20205;-81
2022/03/26 03:02:59;;;;;;;22.67;13.93;;;9.60;99.90;;;;;;5027431;28;20667;-81
2022/03/26 03:05:26;;;;;;;22.00;14.00;;;9.40;99.90;;;;;;5030183;28;20275;-82
2022/03/26 03:07:53;;;;;;;20.70;13.57;;;9.20;99.90;;;;;;5031355;28;20589;-82
2022/03/26 03:10:21;;;;;;;21.63;13.70;;;9.30;99.90;;;;;;5031308;28;20266;-82
2022/03/26 03:12:49;;;;;;;21.50;14.57;;;9.10;99.90;;;;;;5031443;28;20205;-81
2022/03/26 03:15:17;;;;;;;18.97;13.90;;;9.10;99.90;;;;;;5030667;28;20640;-81
2022/03/26 03:17:45;;;;;;;20.67;13.43;;;9.30;99.90;;;;;;5031383;28;20233;-81
2022/03/26 03:20:12;;;;;;;20.17;13.33;;;9.40;99.90;;;;;;5030779;28;20236;-81
2022/03/26 03:22:40;;;;;;;20.67;13.03;;;9.40;99.90;;;;;;5031019;28;20266;-82
2022/03/26 03:25:09;;;;;;;18.30;12.77;;;9.40;99.90;;;;;;5030680;28;20660;-82
2022/03/26 03:27:37;;;;;;;21.23;13.17;;;9.40;99.90;;;;;;5031239;28;20204;-83
2022/03/26 03:30:06;;;;;;;22.53;13.67;;;9.40;99.90;;;;;;5027592;28;20672;-81
2022/03/26 03:32:32;;;;;;;18.37;13.27;;;9.20;99.90;;;;;;5011203;28;20209;-82
2022/03/26 03:34:59;;;;;;;19.63;13.03;;;9.30;99.90;;;;;;5016363;28;20233;-82
2022/03/26 03:37:26;;;;;;;18.57;12.67;;;9.20;99.90;;;;;;5030677;28;20263;-82
2022/03/26 03:39:52;;;;;;;19.30;12.90;;;9.30;99.90;;;;;;5030744;28;20283;-82
2022/03/26 03:42:19;;;;;;;20.37;13.97;;;9.20;99.90;;;;;;5030628;28;20213;-81
2022/03/26 03:44:45;;;;;;;18.57;12.83;;;9.00;99.90;;;;;;5030598;28;20205;-82
2022/03/26 03:47:13;;;;;;;18.97;13.13;;;9.00;99.90;;;;;;5030666;28;20617;-82
2022/03/26 03:49:40;;;;;;;20.33;13.77;;;8.80;99.90;;;;;;5030567;28;20205;-81
2022/03/26 03:52:07;;;;;;;20.10;13.40;;;8.70;99.90;;;;;;5030521;28;20209;-81
2022/03/26 03:54:34;;;;;;;20.77;13.23;;;8.80;99.90;;;;;;5030321;28;20228;-82
2022/03/26 03:57:00;;;;;;;20.40;13.43;;;8.80;99.90;;;;;;5030111;28;20239;-82
2022/03/26 03:59:27;;;;;;;18.67;12.93;;;8.90;99.90;;;;;;5030200;28;20297;-81
2022/03/26 04:01:53;;;;;;;18.63;12.90;;;8.90;99.90;;;;;;5030333;28;20209;-82
2022/03/26 04:04:21;;;;;;;19.87;13.43;;;8.80;99.90;;;;;;5030341;28;20213;-82
2022/03/26 04:06:48;;;;;;;22.50;14.70;;;8.70;99.90;;;;;;5030069;28;20718;-80
2022/03/26 04:09:15;;;;;;;17.83;13.20;;;8.80;99.90;;;;;;5030334;28;20229;-81
2022/03/26 04:11:41;;;;;;;21.13;13.77;;;8.70;99.90;;;;;;5030352;28;20213;-81
2022/03/26 04:14:08;;;;;;;18.57;13.40;;;8.60;99.90;;;;;;5030144;28;20267;-82
2022/03/26 04:16:35;;;;;;;20.43;13.57;;;8.70;99.90;;;;;;5029122;28;20216;-82
2022/03/26 04:19:01;;;;;;;19.57;13.63;;;8.60;99.90;;;;;;5030184;28;20287;-82
2022/03/26 04:21:30;;;;;;;20.43;13.90;;;8.30;99.90;;;;;;5029780;28;20655;-81
2022/03/26 04:23:57;;;;;;;20.17;12.70;;;8.30;99.90;;;;;;5046307;28;20254;-81
2022/03/26 04:26:23;;;;;;;24.27;14.80;;;8.10;99.90;;;;;;5045981;28;20275;-82
2022/03/26 04:28:50;;;;;;;22.40;13.50;;;7.90;99.90;;;;;;5029927;28;20232;-81
2022/03/26 04:31:17;;;;;;;19.03;13.73;;;7.90;99.90;;;;;;5029180;28;20655;-81
2022/03/26 04:33:43;;;;;;;20.07;13.97;;;8.00;99.90;;;;;;5029738;28;20304;-82
2022/03/26 04:36:10;;;;;;;21.73;13.60;;;8.00;99.90;;;;;;5029793;28;20208;-81
2022/03/26 04:38:38;;;;;;;23.93;14.33;;;7.90;99.90;;;;;;5029594;28;20254;-81
2022/03/26 04:41:08;;;;;;;22.83;14.07;;;7.90;99.90;;;;;;5029962;28;20204;-82
2022/03/26 04:43:35;;;;;;;22.90;14.17;;;8.00;99.90;;;;;;5029689;28;20212;-82
2022/03/26 04:46:04;;;;;;;23.00;14.43;;;7.80;99.90;;;;;;5034320;28;20212;-81
2022/03/26 04:48:31;;;;;;;23.50;14.17;;;7.90;99.90;;;;;;5049406;28;20513;-80
2022/03/26 04:50:58;;;;;;;24.97;14.77;;;8.00;99.90;;;;;;5049364;28;20254;-81
2022/03/26 04:53:25;;;;;;;21.53;13.70;;;8.00;99.90;;;;;;5038526;28;20263;-81
2022/03/26 04:55:53;;;;;;;24.03;14.33;;;8.00;99.90;;;;;;5029755;28;20600;-81
2022/03/26 04:58:19;;;;;;;27.13;14.50;;;8.00;99.90;;;;;;5029215;28;20212;-82
2022/03/26 05:00:46;;;;;;;21.90;14.43;;;8.00;99.90;;;;;;5029214;28;20616;-81
2022/03/26 05:03:12;;;;;;;23.53;14.67;;;8.00;99.90;;;;;;5029344;28;20239;-81
2022/03/26 05:05:39;;;;;;;22.87;13.80;;;8.20;99.90;;;;;;5029303;28;20630;-81
2022/03/26 05:08:06;;;;;;;25.73;14.47;;;8.20;99.90;;;;;;5029150;28;20270;-81
2022/03/26 05:10:33;;;;;;;23.07;15.03;;;8.30;99.90;;;;;;5028729;28;20718;-81
2022/03/26 05:13:01;;;;;;;23.43;15.17;;;8.20;99.90;;;;;;5029181;28;20213;-83
2022/03/26 05:15:28;;;;;;;22.30;14.57;;;8.20;99.90;;;;;;5028623;28;20228;-83
2022/03/26 05:17:55;;;;;;;29.20;14.53;;;8.30;99.90;;;;;;5028830;28;20208;-81
2022/03/26 05:20:23;;;;;;;20.97;14.03;;;8.30;99.90;;;;;;5028622;28;20245;-81
2022/03/26 05:22:51;;;;;;;22.93;15.10;;;8.30;99.90;;;;;;5030852;28;20257;-82
2022/03/26 05:25:19;;;;;;;24.67;14.40;;;8.10;99.90;;;;;;5028783;28;20305;-81
2022/03/26 05:27:46;;;;;;;25.27;15.47;;;8.30;99.90;;;;;;5021112;28;20210;-81
2022/03/26 05:30:14;;;;;;;29.00;15.53;;;7.70;99.90;;;;;;5009038;28;20245;-82
2022/03/26 05:32:41;;;;;;;27.23;16.00;;;7.40;99.90;;;;;;5009174;28;20276;-81
2022/03/26 05:35:11;;;;;;;24.50;15.57;;;7.60;99.90;;;;;;5009096;28;20291;-81
2022/03/26 05:37:38;;;;;;;22.33;13.73;;;7.60;99.90;;;;;;5008788;28;20347;-82
2022/03/26 05:40:07;;;;;;;25.13;16.10;;;7.60;99.90;;;;;;5008992;28;20267;-82
2022/03/26 05:42:34;;;;;;;22.80;15.07;;;7.60;99.90;;;;;;5023238;28;20213;-82
2022/03/26 05:45:01;;;;;;;25.70;15.70;;;7.60;99.90;;;;;;5028191;28;20316;-81
2022/03/26 05:47:30;;;;;;;26.77;15.03;;;7.70;99.90;;;;;;5028535;28;20274;-82
2022/03/26 05:49:57;;;;;;;24.40;16.20;;;7.80;99.90;;;;;;5028423;28;20679;-81
2022/03/26 05:52:23;;;;;;;21.83;15.00;;;7.70;99.90;;;;;;5028331;28;20200;-81
2022/03/26 05:54:50;;;;;;;23.27;15.77;;;7.60;99.90;;;;;;5028221;28;20240;-81
2022/03/26 05:57:17;;;;;;;27.97;16.60;;;7.60;99.90;;;;;;5028899;28;20208;-82
2022/03/26 05:59:43;;;;;;;24.80;14.87;;;7.50;99.90;;;;;;5027708;28;20219;-82
2022/03/26 06:02:12;;;;;;;25.27;16.50;;;7.60;99.90;;;;;;5028272;28;20236;-81
2022/03/26 06:04:40;;;;;;;23.57;14.73;;;7.70;99.90;;;;;;5028559;28;20233;-81
2022/03/26 06:07:07;;;;;;;25.33;16.00;;;7.80;99.90;;;;;;5028477;28;20231;-81
2022/03/26 06:09:34;;;;;;;27.53;15.57;;;7.90;99.90;;;;;;5028095;28;20247;-82
2022/03/26 06:12:00;;;;;;;28.10;16.90;;;7.80;99.90;;;;;;5028441;28;20275;-81
2022/03/26 06:14:27;;;;;;;27.57;16.93;;;7.80;99.90;;;;;;5027891;28;20306;-82
2022/03/26 06:16:53;;;;;;;27.47;15.53;;;7.80;99.90;;;;;;5028016;28;20663;-81
2022/03/26 06:19:20;;;;;;;28.20;16.27;;;7.90;99.90;;;;;;5027839;28;20776;-82
2022/03/26 06:21:48;;;;;;;31.10;17.60;;;7.80;99.90;;;;;;5028425;28;20211;-82
2022/03/26 06:24:15;;;;;;;27.03;17.00;;;7.60;99.90;;;;;;5028803;28;20262;-82
2022/03/26 06:26:44;;;;;;;28.80;16.70;;;7.60;99.90;;;;;;5028100;28;20730;-82
2022/03/26 06:29:12;;;;;;;27.73;17.20;;;7.70;99.90;;;;;;5027806;28;20219;-81
2022/03/26 06:31:38;;;;;;;29.77;17.57;;;7.80;99.90;;;;;;5028177;28;20582;-82
2022/03/26 06:34:05;;;;;;;30.77;17.43;;;7.80;99.90;;;;;;5028184;28;20259;-82
2022/03/26 06:36:33;;;;;;;25.33;15.40;;;7.80;99.90;;;;;;5027957;28;20270;-82
2022/03/26 06:39:01;;;;;;;27.77;17.30;;;7.80;99.90;;;;;;5036354;28;20628;-82
2022/03/26 06:41:28;;;;;;;28.63;16.63;;;7.90;99.90;;;;;;5045984;28;20213;-82
2022/03/26 06:43:55;;;;;;;30.97;17.67;;;7.90;99.90;;;;;;5031597;28;20664;-82
2022/03/26 06:46:21;;;;;;;29.87;17.67;;;7.90;99.90;;;;;;5031586;28;20205;-81
2022/03/26 06:48:48;;;;;;;30.10;17.00;;;8.00;99.90;;;;;;5031689;28;20710;-82
2022/03/26 06:51:14;;;;;;;28.47;15.80;;;8.10;99.90;;;;;;5031615;28;20729;-81
2022/03/26 06:53:41;;;;;;;28.50;16.93;;;8.10;99.90;;;;;;5031620;28;20240;-82
2022/03/26 06:56:09;;;;;;;26.53;16.60;;;8.20;99.90;;;;;;5031835;28;20294;-81
2022/03/26 06:58:36;;;;;;;30.20;16.60;;;8.30;99.90;;;;;;5031165;28;20691;-81
2022/03/26 07:01:06;;;;;;;28.93;17.13;;;8.50;99.90;;;;;;5031639;28;20235;-81
2022/03/26 07:03:32;;;;;;;27.63;17.07;;;8.50;99.90;;;;;;5031548;28;20299;-81
2022/03/26 07:05:59;;;;;;;26.40;15.23;;;8.60;99.90;;;;;;5031547;28;20236;-82
2022/03/26 07:08:26;;;;;;;24.37;14.80;;;8.80;99.90;;;;;;5031158;28;20675;-81
2022/03/26 07:10:53;;;;;;;26.80;15.30;;;8.80;99.90;;;;;;5030966;28;20735;-81
2022/03/26 07:13:21;;;;;;;25.27;15.17;;;8.90;99.90;;;;;;5031419;28;20204;-81
2022/03/26 07:15:48;;;;;;;28.27;15.97;;;9.00;99.90;;;;;;5030831;28;20251;-81
2022/03/26 07:18:15;;;;;;;25.60;16.23;;;9.10;99.90;;;;;;5031143;28;20208;-81
2022/03/26 07:20:42;;;;;;;22.80;14.30;;;9.10;99.90;;;;;;5030902;28;20298;-81
2022/03/26 07:23:09;;;;;;;27.57;15.77;;;9.20;99.90;;;;;;5031946;28;20265;-81
2022/03/26 07:25:35;;;;;;;25.77;15.53;;;9.20;99.90;;;;;;5031006;28;20209;-81
2022/03/26 07:28:03;;;;;;;27.50;16.40;;;9.30;99.90;;;;;;5031355;28;20205;-81
2022/03/26 07:30:31;;;;;;;27.37;16.03;;;9.30;99.90;;;;;;5030582;28;20205;-81
2022/03/26 07:32:58;;;;;;;26.63;15.97;;;9.40;99.90;;;;;;5031192;28;20618;-81
2022/03/26 07:35:25;;;;;;;25.60;15.70;;;9.50;99.90;;;;;;5030734;28;20232;-80
2022/03/26 07:37:51;;;;;;;22.60;14.50;;;9.60;99.90;;;;;;5031432;28;20205;-81
2022/03/26 07:40:18;;;;;;;25.67;14.93;;;9.80;99.90;;;;;;5030636;28;20204;-81
2022/03/26 07:42:45;;;;;;;22.40;14.00;;;9.80;99.90;;;;;;5030808;28;20216;-81
2022/03/26 07:45:12;;;;;;;22.00;14.53;;;9.90;99.90;;;;;;5030149;28;20625;-81
2022/03/26 07:47:40;;;;;;;23.70;15.63;;;10.10;99.90;;;;;;5030922;28;20205;-81
2022/03/26 07:50:08;;;;;;;23.97;15.27;;;10.20;99.90;;;;;;5030545;28;20659;-81
2022/03/26 07:52:35;;;;;;;23.00;15.37;;;10.30;99.90;;;;;;5028600;28;20205;-81
2022/03/26 07:55:02;;;;;;;25.40;15.87;;;10.30;99.90;;;;;;5030249;28;20244;-81
2022/03/26 07:57:29;;;;;;;21.60;14.20;;;10.40;99.90;;;;;;5030436;28;20263;-83
2022/03/26 07:59:55;;;;;;;21.90;14.13;;;10.50;99.90;;;;;;5030248;28;20220;-82
2022/03/26 08:02:22;;;;;;;22.10;14.20;;;10.60;99.90;;;;;;5030317;28;20205;-84
2022/03/26 08:04:50;;;;;;;18.13;13.17;;;10.70;99.90;;;;;;5030330;28;20215;-83
2022/03/26 08:07:16;;;;;;;23.23;14.80;;;10.80;99.90;;;;;;5030187;28;20239;-83
2022/03/26 08:09:43;;;;;;;20.53;12.40;;;10.90;99.90;;;;;;5030207;28;20296;-83
2022/03/26 08:12:11;;;;;;;18.10;11.80;;;11.00;99.90;;;;;;5020301;28;20214;-83
2022/03/26 08:14:37;;;;;;;24.70;14.57;;;11.20;99.90;;;;;;5010043;28;20232;-82
2022/03/26 08:17:05;;;;;;;18.07;12.67;;;11.30;99.90;;;;;;5010433;28;20206;-83
2022/03/26 08:19:34;;;;;;;21.77;13.63;;;11.40;99.90;;;;;;5009910;28;20328;-83
2022/03/26 08:22:03;;;;;;;20.40;12.20;;;11.40;99.90;;;;;;5016130;28;20660;-83
2022/03/26 08:24:30;;;;;;;18.13;12.67;;;11.50;99.90;;;;;;5010226;28;21036;-84
2022/03/26 08:26:56;;;;;;;15.77;11.73;;;11.60;99.90;;;;;;5009913;28;20210;-83
2022/03/26 08:29:23;;;;;;;17.70;12.97;;;11.60;99.90;;;;;;5009567;28;20205;-83
2022/03/26 08:31:50;;;;;;;18.67;12.97;;;11.70;99.90;;;;;;5035409;28;20213;-82
2022/03/26 08:34:18;;;;;;;19.47;12.93;;;11.80;99.90;;;;;;5049806;28;20717;-81
2022/03/26 08:36:45;;;;;;;17.47;12.37;;;11.90;99.90;;;;;;5049706;28;20230;-81
2022/03/26 08:39:13;;;;;;;19.23;13.43;;;11.80;99.90;;;;;;5032335;28;20220;-80
2022/03/26 08:41:39;;;;;;;17.17;12.33;;;11.80;99.90;;;;;;5029442;28;20260;-81
2022/03/26 08:44:06;;;;;;;16.53;11.33;;;12.00;99.90;;;;;;5029403;28;20201;-81
2022/03/26 08:46:34;;;;;;;16.37;11.37;;;12.00;99.90;;;;;;5029539;28;20209;-81
2022/03/26 08:49:00;;;;;;;21.63;13.17;;;12.10;99.90;;;;;;5029592;28;20204;-81
2022/03/26 08:51:27;;;;;;;17.03;11.53;;;12.10;99.90;;;;;;5029257;28;20201;-81
2022/03/26 08:53:54;;;;;;;14.67;10.57;;;12.20;99.90;;;;;;5029476;28;20266;-81
2022/03/26 08:56:22;;;;;;;17.03;11.67;;;12.40;99.90;;;;;;5029289;28;20278;-81
2022/03/26 08:58:48;;;;;;;16.87;12.17;;;12.40;99.90;;;;;;5029090;28;20209;-83
2022/03/26 09:01:15;;;;;;;19.53;11.87;;;12.30;99.90;;;;;;5028929;28;20742;-83
2022/03/26 09:03:43;;;;;;;14.77;10.73;;;12.30;99.90;;;;;;5028462;28;20213;-83
2022/03/26 09:06:10;;;;;;;15.63;11.10;;;12.40;99.90;;;;;;5028887;28;20632;-83
2022/03/26 09:08:37;;;;;;;17.77;11.37;;;12.40;99.90;;;;;;5029242;28;20267;-83
2022/03/26 09:11:07;;;;;;;15.80;10.53;;;12.50;99.90;;;;;;5029067;28;20209;-83
2022/03/26 09:13:35;;;;;;;12.90;10.03;;;12.50;99.90;;;;;;5028864;28;20262;-82
2022/03/26 09:16:04;;;;;;;11.57;9.40;;;12.60;99.90;;;;;;5028557;28;20708;-81
2022/03/26 09:18:31;;;;;;;11.43;9.13;;;12.70;99.90;;;;;;5028468;28;20216;-80
2022/03/26 09:20:58;;;;;;;10.33;8.60;;;12.70;99.90;;;;;;5028776;28;20251;-81
2022/03/26 09:23:25;;;;;;;12.13;9.07;;;12.80;99.90;;;;;;5029478;28;20209;-81
2022/03/26 09:25:51;;;;;;;13.57;9.30;;;12.80;99.90;;;;;;5028908;28;20201;-80
2022/03/26 09:28:18;;;;;;;13.07;9.73;;;13.00;99.90;;;;;;5028348;28;20247;-81
2022/03/26 09:30:46;;;;;;;12.80;9.10;;;13.20;99.90;;;;;;5028502;28;20271;-81
2022/03/26 09:33:13;;;;;;;12.70;9.37;;;13.30;99.90;;;;;;5028506;28;20231;-81
2022/03/26 09:35:39;;;;;;;13.67;9.70;;;13.30;99.90;;;;;;5028577;28;20268;-81
2022/03/26 09:38:06;;;;;;;11.57;8.93;;;13.30;99.90;;;;;;5028556;28;20209;-81
2022/03/26 09:40:34;;;;;;;14.23;9.40;;;13.30;99.90;;;;;;5028300;28;20208;-81
2022/03/26 09:43:02;;;;;;;10.50;8.13;;;13.20;99.90;;;;;;5028337;28;20295;-80
2022/03/26 09:45:28;;;;;;;11.70;9.13;;;13.20;99.90;;;;;;5028179;28;20259;-81
2022/03/26 09:47:56;;;;;;;13.93;9.23;;;13.20;99.90;;;;;;5028177;28;20627;-80
2022/03/26 09:50:23;;;;;;;10.63;8.20;;;13.10;99.90;;;;;;5028396;28;20212;-81
2022/03/26 09:52:50;;;;;;;9.37;7.87;;;13.20;99.90;;;;;;5028449;28;20205;-80
2022/03/26 09:55:21;;;;;;;9.43;7.67;;;13.20;99.90;;;;;;5028022;28;20232;-82
2022/03/26 09:57:48;;;;;;;11.03;7.87;;;13.20;99.90;;;;;;5028242;28;20215;-82
2022/03/26 10:00:16;;;;;;;9.30;7.10;;;13.10;99.90;;;;;;5028047;28;20227;-83
2022/03/26 10:02:43;;;;;;;10.63;7.13;;;13.10;99.90;;;;;;5028156;28;20213;-82
2022/03/26 10:05:12;;;;;;;11.17;8.07;;;13.20;99.90;;;;;;5014315;28;20259;-80
2022/03/26 10:07:39;;;;;;;14.07;9.27;;;13.30;99.90;;;;;;5008567;28;20209;-83
2022/03/26 10:10:07;;;;;;;13.57;8.97;;;13.20;99.90;;;;;;5024437;28;20260;-82
2022/03/26 10:12:34;;;;;;;12.87;9.17;;;13.00;99.90;;;;;;5027879;28;20208;-83
2022/03/26 10:15:04;;;;;;;13.80;9.00;;;13.00;99.90;;;;;;5020391;28;20213;-82
2022/03/26 10:17:32;;;;;;;11.63;8.73;;;13.10;99.90;;;;;;5012761;28;20197;-82
2022/03/26 10:20:00;;;;;;;12.03;9.23;;;13.10;99.90;;;;;;5012250;28;20505;-83
2022/03/26 10:22:34;;;;;;;12.77;8.87;;;13.20;99.90;;;;;;5017193;28;20201;-80
2022/03/26 10:25:04;;;;;;;16.40;9.57;;;13.30;99.90;;;;;;5048663;28;20211;-80
2022/03/26 10:27:33;;;;;;;15.57;10.10;;;13.30;99.90;;;;;;5051734;28;20204;-80
2022/03/26 10:30:01;;;;;;;14.87;9.57;;;13.30;99.90;;;;;;5048478;28;20655;-80
2022/03/26 10:32:45;;;;;;;13.57;9.60;;;13.40;99.90;;;;;;5031752;28;20209;-80
2022/03/26 10:35:14;;;;;;;16.77;9.50;;;13.40;99.90;;;;;;5031853;28;20199;-80
2022/03/26 10:37:53;;;;;;;13.10;9.43;;;13.40;99.90;;;;;;5032053;28;20200;-80
2022/03/26 10:40:23;;;;;;;11.17;8.67;;;13.40;99.90;;;;;;5031711;28;20208;-80
2022/03/26 10:42:54;;;;;;;12.50;8.80;;;13.40;99.90;;;;;;5031775;28;20220;-80
2022/03/26 10:45:21;;;;;;;12.80;8.40;;;13.40;99.90;;;;;;5031409;28;20244;-80
2022/03/26 10:47:49;;;;;;;10.67;8.50;;;13.50;99.90;;;;;;5031743;28;20213;-80
2022/03/26 10:50:16;;;;;;;13.83;9.50;;;13.50;99.90;;;;;;5031347;28;20299;-80
2022/03/26 10:52:42;;;;;;;13.83;9.73;;;13.60;99.90;;;;;;5031601;28;20447;-82
2022/03/26 10:55:15;;;;;;;12.40;8.20;;;13.50;99.90;;;;;;5031144;28;20435;-81
2022/03/26 10:57:44;;;;;;;12.70;9.60;;;13.50;99.90;;;;;;5031396;28;20220;-79
2022/03/26 11:00:11;;;;;;;12.83;9.33;;;13.50;99.90;;;;;;5030996;28;20324;-81
2022/03/26 11:02:38;;;;;;;14.60;9.73;;;13.60;99.90;;;;;;5031576;28;20302;-81
2022/03/26 11:05:06;;;;;;;13.63;9.90;;;13.70;99.90;;;;;;5030891;28;20205;-80
2022/03/26 11:07:35;;;;;;;15.63;9.97;;;13.50;99.90;;;;;;5031357;28;20267;-80
2022/03/26 11:10:05;;;;;;;14.97;9.87;;;13.40;99.90;;;;;;5031037;28;20225;-81
2022/03/26 11:12:34;;;;;;;14.40;10.50;;;13.30;99.90;;;;;;5011560;28;20206;-80
2022/03/26 11:15:03;;;;;;;17.07;10.37;;;13.30;99.90;;;;;;5011752;28;20206;-80
2022/03/26 11:17:40;;;;;;;14.63;10.47;;;13.40;99.90;;;;;;5011338;28;20233;-81
2022/03/26 11:20:21;;;;;;;13.77;10.40;;;13.20;99.90;;;;;;5025781;28;20258;-81
2022/03/26 11:23:02;;;;;;;16.57;10.87;;;13.30;99.90;;;;;;5044797;28;20283;-80
2022/03/26 11:25:53;;;;;;;15.10;10.47;;;13.20;99.90;;;;;;5030547;28;20189;-81
2022/03/26 11:28:36;;;;;;;15.23;10.53;;;13.20;99.90;;;;;;5011340;28;20198;-80
2022/03/26 11:31:09;;;;;;;17.10;9.63;;;13.30;99.90;;;;;;5010999;28;20281;-81
2022/03/26 11:33:37;;;;;;;16.03;11.07;;;13.30;99.90;;;;;;5011068;28;20252;-80
2022/03/26 11:36:08;;;;;;;14.73;10.20;;;13.30;99.90;;;;;;5011380;28;20307;-80
2022/03/26 11:38:35;;;;;;;15.83;10.17;;;13.30;99.90;;;;;;5011149;28;20209;-81
2022/03/26 11:41:06;;;;;;;16.07;11.03;;;13.30;99.90;;;;;;5012540;28;20218;-81
2022/03/26 11:44:04;;;;;;;15.93;10.23;;;13.40;99.90;;;;;;5030852;28;20193;-82
2022/03/26 11:52:23;;;;;;;17.20;11.50;;;13.50;99.90;;;;;;5012997;28;20288;-80
2022/03/26 11:54:54;;;;;;;16.47;10.80;;;13.60;99.90;;;;;;5030269;28;20209;-82
2022/03/26 11:57:22;;;;;;;17.97;11.07;;;13.60;99.90;;;;;;5030348;28;20220;-81
2022/03/26 11:59:51;;;;;;;20.60;12.90;;;13.70;99.90;;;;;;5030470;28;20204;-80
2022/03/26 12:02:24;;;;;;;15.20;11.07;;;13.70;99.90;;;;;;5030317;28;20209;-82
2022/03/26 12:04:56;;;;;;;15.13;10.50;;;13.70;99.90;;;;;;5030461;28;20228;-81
2022/03/26 12:07:24;;;;;;;16.00;10.70;;;13.70;99.90;;;;;;5030257;28;20270;-81
2022/03/26 12:10:12;;;;;;;15.97;11.27;;;13.70;99.90;;;;;;5030099;28;20229;-81
2022/03/26 12:12:50;;;;;;;15.57;10.80;;;13.70;99.90;;;;;;5030176;28;20605;-80
2022/03/26 12:15:28;;;;;;;13.27;9.63;;;13.70;99.90;;;;;;5029551;28;20262;-81
2022/03/26 12:18:05;;;;;;;13.77;10.93;;;13.80;99.90;;;;;;5009998;28;20224;-81
2022/03/26 12:20:35;;;;;;;17.43;11.80;;;13.80;99.90;;;;;;5009808;28;20718;-81
2022/03/26 12:23:07;;;;;;;17.67;12.00;;;13.70;99.90;;;;;;5018899;28;20201;-81
2022/03/26 12:25:42;;;;;;;19.50;12.13;;;13.60;99.90;;;;;;5029718;28;20197;-80
2022/03/26 12:28:09;;;;;;;16.73;12.17;;;13.60;99.90;;;;;;5030325;28;20200;-81
2022/03/26 12:30:37;;;;;;;17.50;12.17;;;13.60;99.90;;;;;;5029437;28;20209;-81
2022/03/26 12:33:07;;;;;;;20.43;13.43;;;13.60;99.90;;;;;;5028438;28;20271;-81
2022/03/26 12:35:34;;;;;;;19.37;12.53;;;13.50;99.90;;;;;;5028871;28;20209;-80
2022/03/26 12:38:04;;;;;;;20.97;11.67;;;13.50;99.90;;;;;;5027849;28;20663;-81
2022/03/26 12:40:32;;;;;;;20.53;12.73;;;13.50;99.90;;;;;;5029391;28;20311;-80
2022/03/26 12:42:59;;;;;;;19.33;12.90;;;13.60;99.90;;;;;;5029493;28;20239;-81